Time;durP1;ratioP1;P1;durP2;ratioP2;P2;SDS_P1;SDS_P2;PMS_P1;PMS_P2;Temp;Humidity;BMP_temperature;BMP_pressure;BME280_temperature;BME280_humidity;BME280_pressure;Samples;Min_cycle;Max_cycle;Signal;HPM_P1;HPM_P2
2021/09/26 00:00:09;;;;;;;16.63;9.60;;;;;;;;;;4958455;28;20019;-57
2021/09/26 00:02:34;;;;;;;16.13;10.32;;;;;;;;;;4951685;28;20231;-57
2021/09/26 00:05:00;;;;;;;15.35;10.20;;;;;;;;;;4961338;28;20076;-57
2021/09/26 00:07:25;;;;;;;16.65;10.43;;;;;;;;;;4931613;28;20087;-57
2021/09/26 00:09:50;;;;;;;16.60;9.85;;;;;;;;;;4934437;29;20031;-57
2021/09/26 00:12:15;;;;;;;13.93;9.45;;;;;;;;;;4936661;29;20051;-57
2021/09/26 00:14:41;;;;;;;16.52;9.70;;;;;;;;;;4932034;29;20024;-57
2021/09/26 00:17:06;;;;;;;15.85;9.50;;;;;;;;;;4952067;28;20452;-57
2021/09/26 00:19:31;;;;;;;14.73;10.10;;;;;;;;;;4951549;28;20462;-57
2021/09/26 00:21:56;;;;;;;18.98;10.30;;;;;;;;;;4936085;28;20039;-57
2021/09/26 00:24:22;;;;;;;19.52;10.23;;;;;;;;;;4934149;29;20059;-57
2021/09/26 00:26:47;;;;;;;16.90;10.68;;;;;;;;;;4929647;28;20494;-57
2021/09/26 00:29:12;;;;;;;16.38;11.05;;;;;;;;;;4934948;29;20039;-57
2021/09/26 00:31:37;;;;;;;20.80;9.98;;;;;;;;;;4942823;29;20070;-57
2021/09/26 00:34:03;;;;;;;16.17;10.25;;;;;;;;;;4944337;29;20102;-57
2021/09/26 00:36:28;;;;;;;19.35;10.35;;;;;;;;;;4943275;28;20077;-57
2021/09/26 00:38:53;;;;;;;17.27;10.40;;;;;;;;;;4935890;29;20106;-57
2021/09/26 00:41:18;;;;;;;17.48;9.73;;;;;;;;;;4935567;29;20214;-57
2021/09/26 00:43:43;;;;;;;20.35;10.32;;;;;;;;;;4937447;29;20027;-57
2021/09/26 00:46:09;;;;;;;16.95;11.43;;;;;;;;;;4937301;28;20097;-57
2021/09/26 00:48:34;;;;;;;18.20;10.02;;;;;;;;;;4945068;29;20030;-57
2021/09/26 00:51:00;;;;;;;15.70;11.48;;;;;;;;;;4948477;28;20051;-57
2021/09/26 00:53:25;;;;;;;15.40;10.73;;;;;;;;;;4954668;28;20485;-57
2021/09/26 00:55:53;;;;;;;17.42;11.25;;;;;;;;;;4955801;28;20043;-57
2021/09/26 00:58:18;;;;;;;17.70;10.98;;;;;;;;;;4957283;28;20030;-57
2021/09/26 01:00:43;;;;;;;19.63;12.50;;;;;;;;;;4960476;28;20038;-57
2021/09/26 01:03:09;;;;;;;22.17;12.10;;;;;;;;;;4954133;28;20027;-57
2021/09/26 01:05:34;;;;;;;16.98;11.10;;;;;;;;;;4953673;28;20035;-56
2021/09/26 01:07:59;;;;;;;19.52;11.20;;;;;;;;;;4956759;28;20079;-57
2021/09/26 01:10:33;;;;;;;18.55;11.13;;;;;;;;;;4953959;28;20043;-57
2021/09/26 01:13:04;;;;;;;18.80;11.55;;;;;;;;;;4960922;28;20039;-57
2021/09/26 01:15:42;;;;;;;17.58;12.32;;;;;;;;;;4956454;28;20034;-57
2021/09/26 01:18:09;;;;;;;22.48;13.00;;;;;;;;;;4954169;28;20019;-57
2021/09/26 01:20:53;;;;;;;17.20;12.63;;;;;;;;;;4952007;28;20132;-57
2021/09/26 01:23:21;;;;;;;20.70;13.32;;;;;;;;;;4954241;28;20050;-57
2021/09/26 01:26:04;;;;;;;21.20;13.02;;;;;;;;;;4954572;28;20039;-57
2021/09/26 01:28:48;;;;;;;17.65;11.52;;;;;;;;;;4959492;28;20038;-57
2021/09/26 01:31:18;;;;;;;22.90;12.70;;;;;;;;;;4953776;28;20229;-57
2021/09/26 01:33:44;;;;;;;;;;;;;;;;;;4954482;28;20086;-57
2021/09/26 01:36:11;;;;;;;22.77;13.15;;;;;;;;;;4953679;28;19961;-57
2021/09/26 01:38:38;;;;;;;17.33;12.40;;;;;;;;;;4952651;28;20035;-57
2021/09/26 01:41:10;;;;;;;16.92;11.88;;;;;;;;;;4951015;28;20059;-57
2021/09/26 01:43:37;;;;;;;19.27;12.20;;;;;;;;;;4953935;28;20030;-57
2021/09/26 01:46:04;;;;;;;19.55;13.48;;;;;;;;;;4959069;28;20041;-57
2021/09/26 01:48:34;;;;;;;22.25;12.63;;;;;;;;;;4959281;28;20038;-57
2021/09/26 01:51:00;;;;;;;18.67;13.07;;;;;;;;;;4955658;28;20051;-57
2021/09/26 01:53:25;;;;;;;19.05;12.55;;;;;;;;;;4959964;28;20186;-57
2021/09/26 01:55:50;;;;;;;18.35;11.27;;;;;;;;;;4956806;28;20141;-57
2021/09/26 01:58:16;;;;;;;18.33;12.82;;;;;;;;;;4955875;28;20129;-62
2021/09/26 02:00:41;;;;;;;18.77;12.63;;;;;;;;;;4960493;28;20351;-57
2021/09/26 02:03:06;;;;;;;20.20;12.98;;;;;;;;;;4959405;28;20027;-57
2021/09/26 02:05:31;;;;;;;16.75;11.88;;;;;;;;;;4955074;28;20117;-57
2021/09/26 02:07:56;;;;;;;17.85;11.95;;;;;;;;;;4955422;28;20110;-57
2021/09/26 02:10:22;;;;;;;22.83;13.65;;;;;;;;;;4958887;28;20156;-57
2021/09/26 02:12:47;;;;;;;17.27;12.85;;;;;;;;;;4958792;28;20166;-57
2021/09/26 02:15:13;;;;;;;19.33;12.40;;;;;;;;;;4950151;28;20425;-57
2021/09/26 02:17:38;;;;;;;24.73;14.00;;;;;;;;;;4951636;28;20488;-57
2021/09/26 02:20:04;;;;;;;24.98;15.63;;;;;;;;;;4955126;28;20023;-56
2021/09/26 02:22:33;;;;;;;28.38;16.52;;;;;;;;;;4953980;28;20035;-57
2021/09/26 02:24:58;;;;;;;21.40;14.98;;;;;;;;;;4952717;28;20027;-57
2021/09/26 02:27:24;;;;;;;21.35;13.60;;;;;;;;;;4953617;28;20048;-57
2021/09/26 02:29:49;;;;;;;20.58;13.50;;;;;;;;;;4959458;28;20063;-61
2021/09/26 02:32:14;;;;;;;19.52;13.13;;;;;;;;;;4959489;28;20063;-57
2021/09/26 02:34:40;;;;;;;22.77;14.85;;;;;;;;;;4961774;28;20019;-58
2021/09/26 02:37:05;;;;;;;21.48;15.32;;;;;;;;;;4957123;28;20039;-57
2021/09/26 02:39:30;;;;;;;20.80;13.75;;;;;;;;;;4953792;28;20027;-57
2021/09/26 02:41:59;;;;;;;19.55;14.25;;;;;;;;;;4953341;28;20063;-57
2021/09/26 02:44:43;;;;;;;20.83;13.75;;;;;;;;;;4965478;28;20030;-57
2021/09/26 02:47:10;;;;;;;22.70;14.20;;;;;;;;;;4958424;28;20035;-57
2021/09/26 02:49:35;;;;;;;21.17;13.75;;;;;;;;;;4954924;28;20023;-57
2021/09/26 02:52:00;;;;;;;21.98;13.40;;;;;;;;;;4956915;28;20077;-57
2021/09/26 02:54:26;;;;;;;16.98;11.70;;;;;;;;;;4963301;28;20059;-57
2021/09/26 02:56:51;;;;;;;17.25;12.45;;;;;;;;;;4963593;28;20035;-57
2021/09/26 02:59:17;;;;;;;19.65;13.20;;;;;;;;;;4964501;28;20053;-57
2021/09/26 03:01:51;;;;;;;19.10;12.30;;;;;;;;;;4952609;28;20035;-57
2021/09/26 03:04:16;;;;;;;23.00;14.40;;;;;;;;;;4951896;28;20031;-57
2021/09/26 03:06:41;;;;;;;18.60;13.45;;;;;;;;;;4951217;28;20043;-58
2021/09/26 03:09:06;;;;;;;23.25;15.32;;;;;;;;;;4954538;28;20030;-57
2021/09/26 03:11:32;;;;;;;21.85;13.68;;;;;;;;;;4951777;28;20489;-57
2021/09/26 03:13:57;;;;;;;19.90;13.30;;;;;;;;;;4952620;28;20488;-57
2021/09/26 03:16:22;;;;;;;21.38;14.77;;;;;;;;;;4951991;28;20482;-57
2021/09/26 03:18:47;;;;;;;19.20;13.65;;;;;;;;;;4951942;28;20568;-57
2021/09/26 03:21:13;;;;;;;19.92;13.68;;;;;;;;;;4951304;28;20134;-57
2021/09/26 03:23:38;;;;;;;21.50;13.52;;;;;;;;;;4950418;28;20059;-57
2021/09/26 03:26:03;;;;;;;21.55;13.65;;;;;;;;;;4952000;28;20039;-57
2021/09/26 03:28:29;;;;;;;23.63;14.45;;;;;;;;;;4957334;28;20114;-56
2021/09/26 03:30:54;;;;;;;23.08;14.38;;;;;;;;;;4951450;28;20051;-56
2021/09/26 03:33:20;;;;;;;23.17;14.10;;;;;;;;;;4960877;28;20528;-57
2021/09/26 03:35:45;;;;;;;18.30;11.98;;;;;;;;;;4954427;28;20039;-57
2021/09/26 03:38:11;;;;;;;20.30;13.10;;;;;;;;;;4958358;28;20454;-57
2021/09/26 03:40:36;;;;;;;21.25;13.52;;;;;;;;;;4949305;28;20027;-57
2021/09/26 03:43:01;;;;;;;20.35;13.77;;;;;;;;;;4961458;28;20267;-56
2021/09/26 03:45:26;;;;;;;23.77;12.82;;;;;;;;;;4951556;28;20074;-57
2021/09/26 03:47:51;;;;;;;20.40;12.93;;;;;;;;;;4952196;28;20034;-57
2021/09/26 03:50:17;;;;;;;28.88;14.40;;;;;;;;;;4951039;28;20487;-57
2021/09/26 03:52:42;;;;;;;22.52;14.07;;;;;;;;;;4959977;28;20042;-57
2021/09/26 03:55:08;;;;;;;19.70;12.77;;;;;;;;;;4952253;28;20027;-57
2021/09/26 03:57:33;;;;;;;24.35;13.63;;;;;;;;;;4954914;28;20110;-57
2021/09/26 03:59:59;;;;;;;19.70;12.77;;;;;;;;;;4951624;28;20114;-57
2021/09/26 04:02:24;;;;;;;21.70;14.57;;;;;;;;;;4953217;28;20045;-57
2021/09/26 04:04:49;;;;;;;24.20;14.35;;;;;;;;;;4957439;28;20019;-57
2021/09/26 04:07:14;;;;;;;19.10;13.20;;;;;;;;;;4953111;28;20129;-57
2021/09/26 04:09:39;;;;;;;20.98;13.82;;;;;;;;;;4959030;28;20138;-57
2021/09/26 04:12:05;;;;;;;20.35;13.68;;;;;;;;;;4955722;28;20057;-57
2021/09/26 04:14:30;;;;;;;20.27;13.88;;;;;;;;;;4957899;28;20541;-57
2021/09/26 04:16:55;;;;;;;21.58;13.60;;;;;;;;;;4953424;28;20043;-57
2021/09/26 04:19:20;;;;;;;22.52;14.38;;;;;;;;;;4951174;28;20035;-57
2021/09/26 04:21:46;;;;;;;20.70;14.98;;;;;;;;;;4950814;28;20043;-57
2021/09/26 04:24:11;;;;;;;22.02;14.25;;;;;;;;;;4949659;28;20039;-57
2021/09/26 04:26:36;;;;;;;20.45;13.88;;;;;;;;;;4950633;28;20095;-57
2021/09/26 04:29:02;;;;;;;19.95;13.93;;;;;;;;;;4953928;28;20033;-57
2021/09/26 04:31:27;;;;;;;22.13;14.48;;;;;;;;;;4950083;28;20047;-57
2021/09/26 04:33:52;;;;;;;21.42;15.77;;;;;;;;;;4958581;28;20517;-57
2021/09/26 04:36:17;;;;;;;28.05;16.40;;;;;;;;;;4955178;28;20077;-57
2021/09/26 04:38:42;;;;;;;26.23;15.75;;;;;;;;;;4951282;28;20077;-57
2021/09/26 04:41:08;;;;;;;24.20;14.27;;;;;;;;;;4957229;28;20038;-57
2021/09/26 04:43:33;;;;;;;21.63;13.95;;;;;;;;;;4948146;28;20403;-57
2021/09/26 04:45:58;;;;;;;18.60;13.63;;;;;;;;;;4961273;28;20034;-57
2021/09/26 04:48:23;;;;;;;19.58;14.18;;;;;;;;;;4958368;28;20057;-57
2021/09/26 04:50:49;;;;;;;20.10;13.15;;;;;;;;;;4953981;28;20043;-57
2021/09/26 04:53:14;;;;;;;22.80;14.13;;;;;;;;;;4949778;28;20031;-57
2021/09/26 04:55:39;;;;;;;23.45;14.60;;;;;;;;;;4949502;28;20041;-57
2021/09/26 04:58:06;;;;;;;21.17;13.02;;;;;;;;;;4955263;28;20023;-57
2021/09/26 05:00:31;;;;;;;22.20;14.32;;;;;;;;;;4960354;28;20756;-57
2021/09/26 05:02:57;;;;;;;22.17;14.05;;;;;;;;;;4955894;28;20135;-57
2021/09/26 05:05:22;;;;;;;22.50;14.27;;;;;;;;;;4956528;28;20493;-57
2021/09/26 05:07:47;;;;;;;27.35;14.82;;;;;;;;;;4949533;28;20038;-57
2021/09/26 05:10:12;;;;;;;27.08;14.90;;;;;;;;;;4952397;28;20030;-57
2021/09/26 05:12:38;;;;;;;23.60;14.68;;;;;;;;;;4949348;28;20039;-57
2021/09/26 05:15:04;;;;;;;23.13;14.55;;;;;;;;;;4953466;28;20062;-56
2021/09/26 05:17:30;;;;;;;21.17;13.60;;;;;;;;;;4958143;28;20019;-57
2021/09/26 05:19:55;;;;;;;23.65;15.02;;;;;;;;;;4958689;28;20493;-57
2021/09/26 05:22:21;;;;;;;20.48;14.50;;;;;;;;;;4950986;28;20047;-56
2021/09/26 05:24:46;;;;;;;31.17;14.38;;;;;;;;;;4953599;28;20035;-57
2021/09/26 05:27:11;;;;;;;20.58;13.43;;;;;;;;;;4953926;28;20043;-57
2021/09/26 05:29:36;;;;;;;28.83;14.50;;;;;;;;;;4962500;28;20019;-57
2021/09/26 05:32:02;;;;;;;25.92;14.73;;;;;;;;;;4961344;28;20133;-56
2021/09/26 05:34:29;;;;;;;31.88;19.42;;;;;;;;;;4958050;28;20023;-57
2021/09/26 05:36:54;;;;;;;28.02;17.02;;;;;;;;;;4951483;28;20036;-57
2021/09/26 05:39:21;;;;;;;26.70;17.33;;;;;;;;;;4957620;28;20264;-57
2021/09/26 05:41:46;;;;;;;31.45;17.25;;;;;;;;;;4955784;28;20043;-57
2021/09/26 05:44:11;;;;;;;22.35;14.40;;;;;;;;;;4956254;28;20031;-57
2021/09/26 05:46:37;;;;;;;20.13;13.55;;;;;;;;;;4957192;28;20389;-57
2021/09/26 05:49:02;;;;;;;20.25;13.00;;;;;;;;;;4960216;28;20374;-57
2021/09/26 05:51:27;;;;;;;23.00;13.35;;;;;;;;;;4961880;28;20623;-57
2021/09/26 05:53:52;;;;;;;20.35;13.25;;;;;;;;;;4962571;28;20027;-57
2021/09/26 05:56:18;;;;;;;19.15;13.27;;;;;;;;;;4953437;28;20098;-57
2021/09/26 05:58:43;;;;;;;22.02;13.75;;;;;;;;;;4954751;28;20031;-57
2021/09/26 06:01:08;;;;;;;20.85;13.20;;;;;;;;;;4952029;28;20045;-57
2021/09/26 06:03:33;;;;;;;16.52;11.98;;;;;;;;;;4949852;28;20035;-57
2021/09/26 06:05:59;;;;;;;18.33;12.27;;;;;;;;;;4955183;28;20117;-57
2021/09/26 06:08:26;;;;;;;19.35;12.10;;;;;;;;;;4949885;28;20085;-57
2021/09/26 06:10:52;;;;;;;16.83;12.32;;;;;;;;;;4957105;28;20054;-57
2021/09/26 06:13:17;;;;;;;18.67;11.43;;;;;;;;;;4952391;28;20050;-57
2021/09/26 06:15:43;;;;;;;17.88;11.82;;;;;;;;;;4950724;28;20536;-57
2021/09/26 06:18:08;;;;;;;14.98;10.73;;;;;;;;;;4952965;28;20123;-57
2021/09/26 06:20:33;;;;;;;17.85;10.90;;;;;;;;;;4950312;28;20047;-57
2021/09/26 06:22:58;;;;;;;18.05;11.95;;;;;;;;;;4956783;28;20043;-57
2021/09/26 06:25:26;;;;;;;19.38;13.23;;;;;;;;;;4950188;28;20031;-57
2021/09/26 06:27:51;;;;;;;21.23;13.82;;;;;;;;;;4951480;28;20034;-57
2021/09/26 06:30:17;;;;;;;20.13;14.30;;;;;;;;;;4953673;28;20024;-57
2021/09/26 06:32:42;;;;;;;22.70;14.57;;;;;;;;;;4951599;28;20105;-57
2021/09/26 06:35:07;;;;;;;22.42;15.68;;;;;;;;;;4950343;28;20019;-57
2021/09/26 06:37:33;;;;;;;29.35;16.55;;;;;;;;;;4952418;28;20170;-57
2021/09/26 06:39:58;;;;;;;24.60;15.93;;;;;;;;;;4956256;28;20469;-57
2021/09/26 06:42:23;;;;;;;29.40;17.23;;;;;;;;;;4957094;28;20061;-57
2021/09/26 06:44:48;;;;;;;31.98;16.83;;;;;;;;;;4960030;28;20049;-57
2021/09/26 06:47:14;;;;;;;26.42;18.10;;;;;;;;;;4962158;28;20093;-57
2021/09/26 06:49:39;;;;;;;27.40;16.80;;;;;;;;;;4959573;28;20023;-57
2021/09/26 06:52:04;;;;;;;28.00;17.83;;;;;;;;;;4965199;28;20054;-57
2021/09/26 06:54:30;;;;;;;30.13;16.88;;;;;;;;;;4961132;28;20019;-57
2021/09/26 06:56:55;;;;;;;27.65;17.92;;;;;;;;;;4953276;28;20126;-57
2021/09/26 06:59:20;;;;;;;26.20;16.80;;;;;;;;;;4958067;28;20768;-58
2021/09/26 07:01:45;;;;;;;24.05;16.92;;;;;;;;;;4953942;28;20461;-57
2021/09/26 07:04:11;;;;;;;20.73;14.52;;;;;;;;;;4956629;28;20030;-57
2021/09/26 07:06:36;;;;;;;24.98;13.27;;;;;;;;;;4954403;28;20038;-57
2021/09/26 07:09:01;;;;;;;19.75;14.07;;;;;;;;;;4957995;28;20030;-57
2021/09/26 07:11:26;;;;;;;24.17;14.70;;;;;;;;;;4956270;28;20051;-57
2021/09/26 07:13:52;;;;;;;21.80;13.55;;;;;;;;;;4950907;28;20545;-57
2021/09/26 07:16:17;;;;;;;23.10;14.50;;;;;;;;;;4953567;28;20449;-58
2021/09/26 07:18:42;;;;;;;20.55;14.23;;;;;;;;;;4952370;28;20425;-57
2021/09/26 07:21:10;;;;;;;26.20;16.02;;;;;;;;;;4959799;28;20027;-57
2021/09/26 07:23:35;;;;;;;22.83;14.18;;;;;;;;;;4951955;28;20520;-57
2021/09/26 07:26:00;;;;;;;25.27;14.23;;;;;;;;;;4954921;28;20039;-57
2021/09/26 07:28:25;;;;;;;23.48;14.02;;;;;;;;;;4952556;28;20023;-57
2021/09/26 07:30:51;;;;;;;28.50;16.20;;;;;;;;;;4950845;28;20109;-57
2021/09/26 07:33:16;;;;;;;26.40;16.35;;;;;;;;;;4955064;28;20086;-57
2021/09/26 07:35:43;;;;;;;26.30;17.00;;;;;;;;;;4955229;28;20042;-59
2021/09/26 07:38:08;;;;;;;26.25;15.95;;;;;;;;;;4961052;28;20408;-57
2021/09/26 07:40:33;;;;;;;26.35;16.20;;;;;;;;;;4950934;28;20035;-57
2021/09/26 07:42:59;;;;;;;21.67;15.07;;;;;;;;;;4951979;28;20034;-57
2021/09/26 07:45:24;;;;;;;23.27;15.45;;;;;;;;;;4953406;28;20035;-57
2021/09/26 07:47:49;;;;;;;20.85;15.73;;;;;;;;;;4952029;28;20027;-57
2021/09/26 07:50:14;;;;;;;26.60;15.18;;;;;;;;;;4950736;28;20100;-57
2021/09/26 07:52:40;;;;;;;26.00;15.07;;;;;;;;;;4951123;28;20039;-57
2021/09/26 07:55:05;;;;;;;30.75;15.85;;;;;;;;;;4956005;28;20019;-57
2021/09/26 07:57:30;;;;;;;22.08;14.73;;;;;;;;;;4958040;28;20020;-57
2021/09/26 07:59:56;;;;;;;25.33;15.50;;;;;;;;;;4951775;28;20027;-57
2021/09/26 08:02:21;;;;;;;24.45;15.70;;;;;;;;;;4956379;28;20081;-57
2021/09/26 08:04:46;;;;;;;22.50;14.60;;;;;;;;;;4955264;28;20142;-57
2021/09/26 08:07:11;;;;;;;26.33;14.35;;;;;;;;;;4950685;28;20477;-57
2021/09/26 08:09:37;;;;;;;25.65;16.45;;;;;;;;;;4955079;28;20115;-57
2021/09/26 08:12:03;;;;;;;28.40;16.35;;;;;;;;;;4951638;28;20082;-57
2021/09/26 08:14:28;;;;;;;27.80;15.93;;;;;;;;;;4953349;28;20470;-57
2021/09/26 08:16:53;;;;;;;21.67;15.10;;;;;;;;;;4950796;28;20059;-57
2021/09/26 08:19:21;;;;;;;27.13;17.30;;;;;;;;;;4951498;28;20031;-57
2021/09/26 08:21:47;;;;;;;24.95;14.65;;;;;;;;;;4951042;28;20047;-57
2021/09/26 08:24:12;;;;;;;22.92;14.85;;;;;;;;;;4951314;28;20053;-57
2021/09/26 08:26:37;;;;;;;23.45;15.13;;;;;;;;;;4951267;28;20043;-57
2021/09/26 08:29:02;;;;;;;22.95;14.63;;;;;;;;;;4953239;28;20034;-57
2021/09/26 08:31:28;;;;;;;24.58;14.95;;;;;;;;;;4959143;28;20154;-57
2021/09/26 08:33:53;;;;;;;26.58;15.77;;;;;;;;;;4952306;28;20488;-57
2021/09/26 08:36:18;;;;;;;24.90;14.88;;;;;;;;;;4954633;28;20075;-57
2021/09/26 08:38:43;;;;;;;21.42;14.90;;;;;;;;;;4957601;28;20026;-57
2021/09/26 08:41:09;;;;;;;23.85;14.68;;;;;;;;;;4962870;28;20032;-57
2021/09/26 08:43:34;;;;;;;24.40;14.80;;;;;;;;;;4951617;28;20470;-57
2021/09/26 08:45:59;;;;;;;23.65;14.18;;;;;;;;;;4944709;28;20031;-58
2021/09/26 08:48:24;;;;;;;22.38;13.35;;;;;;;;;;4952937;28;20027;-57
2021/09/26 08:50:50;;;;;;;19.75;13.75;;;;;;;;;;4953237;28;20509;-57
2021/09/26 08:53:17;;;;;;;21.30;12.13;;;;;;;;;;4960704;28;20496;-57
2021/09/26 08:55:43;;;;;;;16.98;12.20;;;;;;;;;;4957897;28;20123;-57
2021/09/26 08:58:08;;;;;;;23.08;12.60;;;;;;;;;;4959968;28;20027;-57
2021/09/26 09:00:35;;;;;;;23.90;13.05;;;;;;;;;;4956720;28;20557;-57
2021/09/26 09:03:02;;;;;;;28.88;13.43;;;;;;;;;;4955355;28;20124;-57
2021/09/26 09:05:39;;;;;;;25.42;14.65;;;;;;;;;;4957187;28;20040;-57
2021/09/26 09:08:12;;;;;;;22.75;13.63;;;;;;;;;;4961262;28;20029;-57
2021/09/26 09:10:40;;;;;;;32.08;15.25;;;;;;;;;;4939753;28;20393;-57
2021/09/26 09:13:05;;;;;;;25.38;14.23;;;;;;;;;;4958327;28;20117;-57
2021/09/26 09:15:31;;;;;;;23.25;13.88;;;;;;;;;;4953484;28;20663;-57
2021/09/26 09:17:59;;;;;;;25.05;13.27;;;;;;;;;;4965091;28;20326;-57
2021/09/26 09:20:25;;;;;;;24.92;14.80;;;;;;;;;;4953535;28;20035;-57
2021/09/26 09:22:51;;;;;;;23.38;13.23;;;;;;;;;;4953665;28;20062;-57
2021/09/26 09:25:30;;;;;;;29.45;13.70;;;;;;;;;;4953869;28;20109;-57
2021/09/26 09:27:55;;;;;;;20.77;13.02;;;;;;;;;;4954398;28;20059;-57
2021/09/26 09:30:30;;;;;;;25.48;12.77;;;;;;;;;;4965506;28;20050;-57
2021/09/26 09:32:55;;;;;;;21.08;13.07;;;;;;;;;;4954697;28;20035;-57
2021/09/26 09:35:21;;;;;;;18.80;13.00;;;;;;;;;;4952709;28;20039;-57
2021/09/26 09:37:46;;;;;;;20.20;11.77;;;;;;;;;;4953699;28;20042;-57
2021/09/26 09:40:18;;;;;;;17.48;12.00;;;;;;;;;;4956199;28;20025;-57
2021/09/26 09:42:45;;;;;;;17.75;11.90;;;;;;;;;;4952971;28;20055;-57
2021/09/26 09:45:16;;;;;;;18.45;11.13;;;;;;;;;;4956832;28;20022;-57
2021/09/26 09:47:57;;;;;;;18.48;11.57;;;;;;;;;;4959065;28;20024;-57
2021/09/26 09:50:40;;;;;;;16.45;10.40;;;;;;;;;;4957008;28;20440;-57
2021/09/26 09:53:06;;;;;;;20.10;11.63;;;;;;;;;;4953704;28;20286;-57
2021/09/26 09:55:31;;;;;;;16.48;10.85;;;;;;;;;;4953387;28;20101;-57
2021/09/26 09:58:13;;;;;;;18.02;11.57;;;;;;;;;;4958967;28;20536;-57
2021/09/26 10:00:57;;;;;;;16.50;10.65;;;;;;;;;;4951128;28;20035;-57
2021/09/26 10:03:51;;;;;;;14.05;10.27;;;;;;;;;;4953156;28;20031;-57
2021/09/26 10:06:18;;;;;;;18.80;10.85;;;;;;;;;;4942926;28;20035;-57
2021/09/26 10:08:43;;;;;;;17.10;10.85;;;;;;;;;;4952625;28;20341;-57
2021/09/26 10:11:08;;;;;;;19.13;10.88;;;;;;;;;;4952484;28;20508;-58
2021/09/26 10:13:36;;;;;;;18.80;10.48;;;;;;;;;;4953393;28;20023;-58
2021/09/26 10:16:03;;;;;;;18.17;11.15;;;;;;;;;;4958031;28;20051;-58
2021/09/26 10:18:29;;;;;;;17.58;10.93;;;;;;;;;;4960900;28;20508;-58
2021/09/26 10:20:54;;;;;;;21.30;13.68;;;;;;;;;;4951989;28;20137;-57
2021/09/26 10:23:19;;;;;;;28.60;18.27;;;;;;;;;;4952410;28;20039;-57
2021/09/26 10:25:44;;;;;;;19.75;14.20;;;;;;;;;;4953414;28;20084;-57
2021/09/26 10:28:10;;;;;;;20.83;13.57;;;;;;;;;;4952431;28;20339;-57
2021/09/26 10:30:35;;;;;;;17.90;11.13;;;;;;;;;;4961662;28;20115;-57
2021/09/26 10:33:00;;;;;;;16.77;10.73;;;;;;;;;;4958062;28;20066;-58
2021/09/26 10:35:26;;;;;;;16.17;9.65;;;;;;;;;;4955733;28;20130;-58
2021/09/26 10:37:51;;;;;;;16.17;10.32;;;;;;;;;;4952421;28;20414;-57
2021/09/26 10:40:16;;;;;;;15.48;10.00;;;;;;;;;;4952266;28;20027;-57
2021/09/26 10:42:42;;;;;;;16.75;10.35;;;;;;;;;;4950932;28;20027;-57
2021/09/26 10:45:09;;;;;;;16.30;9.80;;;;;;;;;;4953620;28;20019;-57
2021/09/26 10:47:35;;;;;;;18.20;9.43;;;;;;;;;;4954866;28;20369;-57
2021/09/26 10:50:00;;;;;;;13.75;10.05;;;;;;;;;;4964398;28;20371;-57
2021/09/26 10:52:25;;;;;;;15.63;9.80;;;;;;;;;;4964041;28;20027;-58
2021/09/26 10:54:51;;;;;;;15.98;10.00;;;;;;;;;;4954815;28;20050;-57
2021/09/26 10:57:19;;;;;;;12.10;8.93;;;;;;;;;;4957518;28;20369;-58
2021/09/26 10:59:45;;;;;;;12.98;8.60;;;;;;;;;;4953122;28;20054;-58
2021/09/26 11:02:22;;;;;;;13.05;9.10;;;;;;;;;;4952904;28;20039;-57
2021/09/26 11:04:48;;;;;;;13.98;9.05;;;;;;;;;;4954373;28;20027;-58
2021/09/26 11:07:16;;;;;;;13.93;9.73;;;;;;;;;;4951597;28;20038;-57
2021/09/26 11:09:51;;;;;;;15.43;10.05;;;;;;;;;;4952154;28;20031;-57
2021/09/26 11:12:36;;;;;;;14.48;9.63;;;;;;;;;;4952081;28;20707;-57
2021/09/26 11:15:08;;;;;;;16.25;9.70;;;;;;;;;;4955087;28;20031;-57
2021/09/26 11:17:40;;;;;;;14.98;9.38;;;;;;;;;;4952501;28;20031;-57
2021/09/26 11:20:05;;;;;;;18.95;10.35;;;;;;;;;;4951662;28;20055;-57
2021/09/26 11:22:31;;;;;;;16.08;9.75;;;;;;;;;;4951477;28;20050;-57
2021/09/26 11:24:57;;;;;;;15.57;9.75;;;;;;;;;;4953324;28;20377;-58
2021/09/26 11:27:23;;;;;;;12.75;9.48;;;;;;;;;;4954208;28;20493;-57
2021/09/26 11:29:50;;;;;;;17.75;10.02;;;;;;;;;;4961200;28;20041;-57
2021/09/26 11:32:24;;;;;;;15.27;9.60;;;;;;;;;;4960474;28;20695;-57
2021/09/26 11:34:53;;;;;;;16.05;9.88;;;;;;;;;;4956926;28;20034;-57
2021/09/26 11:37:37;;;;;;;16.42;9.63;;;;;;;;;;4955054;28;20066;-57
2021/09/26 11:40:03;;;;;;;16.20;9.68;;;;;;;;;;4952978;28;20027;-58
2021/09/26 11:42:32;;;;;;;15.25;10.07;;;;;;;;;;4954988;28;20027;-58
2021/09/26 11:44:58;;;;;;;13.93;9.77;;;;;;;;;;4951849;28;20059;-58
2021/09/26 11:47:23;;;;;;;16.10;9.50;;;;;;;;;;4950634;28;20044;-57
2021/09/26 11:49:49;;;;;;;14.13;9.30;;;;;;;;;;4952229;28;20529;-57
2021/09/26 11:52:14;;;;;;;18.08;9.68;;;;;;;;;;4949859;28;20395;-57
2021/09/26 11:54:39;;;;;;;14.70;9.77;;;;;;;;;;4951460;28;20023;-57
2021/09/26 11:57:05;;;;;;;15.95;9.50;;;;;;;;;;4951061;28;20039;-57
2021/09/26 11:59:37;;;;;;;15.27;10.32;;;;;;;;;;4952577;28;20382;-57
2021/09/26 12:02:09;;;;;;;18.02;9.30;;;;;;;;;;4951000;28;20043;-57
2021/09/26 12:04:34;;;;;;;13.05;9.43;;;;;;;;;;4953737;28;20062;-57
2021/09/26 12:07:01;;;;;;;15.57;9.63;;;;;;;;;;4955752;28;20962;-58
2021/09/26 12:09:33;;;;;;;15.35;9.90;;;;;;;;;;4959517;28;20508;-57
2021/09/26 12:11:58;;;;;;;16.50;9.82;;;;;;;;;;4951519;28;20494;-57
2021/09/26 12:14:24;;;;;;;16.25;9.77;;;;;;;;;;4949305;28;20038;-57
2021/09/26 12:16:49;;;;;;;13.07;9.38;;;;;;;;;;4948424;28;20043;-57
2021/09/26 12:19:14;;;;;;;18.13;9.32;;;;;;;;;;4949917;28;20056;-58
2021/09/26 12:21:39;;;;;;;17.20;9.95;;;;;;;;;;4949507;28;20067;-57
2021/09/26 12:24:06;;;;;;;14.65;9.77;;;;;;;;;;4957322;28;20137;-57
2021/09/26 12:26:40;;;;;;;14.32;9.38;;;;;;;;;;4954310;28;20035;-58
2021/09/26 12:29:12;;;;;;;18.58;10.50;;;;;;;;;;4955564;28;20031;-57
2021/09/26 12:31:37;;;;;;;15.65;9.88;;;;;;;;;;4948491;28;20464;-57
2021/09/26 12:34:03;;;;;;;15.35;10.07;;;;;;;;;;4954024;28;20027;-57
2021/09/26 12:36:30;;;;;;;14.13;9.85;;;;;;;;;;4956075;28;20201;-57
2021/09/26 12:38:55;;;;;;;13.68;9.30;;;;;;;;;;4961251;28;20381;-58
2021/09/26 12:41:20;;;;;;;15.32;9.65;;;;;;;;;;4948811;28;20039;-57
2021/09/26 12:43:49;;;;;;;14.60;9.60;;;;;;;;;;4953424;28;20027;-57
2021/09/26 12:46:15;;;;;;;17.63;10.23;;;;;;;;;;4947805;28;20134;-57
2021/09/26 12:48:42;;;;;;;15.10;10.20;;;;;;;;;;4949243;28;20496;-57
2021/09/26 12:51:10;;;;;;;15.95;9.52;;;;;;;;;;4957753;28;20046;-57
2021/09/26 12:53:38;;;;;;;15.20;9.68;;;;;;;;;;4953299;28;20416;-57
2021/09/26 12:56:03;;;;;;;16.35;9.18;;;;;;;;;;4946774;28;20043;-57
2021/09/26 12:58:33;;;;;;;14.13;9.20;;;;;;;;;;4948752;28;20095;-58
2021/09/26 13:01:09;;;;;;;14.88;9.05;;;;;;;;;;4949168;28;20038;-58
2021/09/26 13:03:34;;;;;;;14.13;9.60;;;;;;;;;;4949956;28;20565;-57
2021/09/26 13:06:00;;;;;;;13.30;8.80;;;;;;;;;;4954417;28;20147;-57
2021/09/26 13:08:37;;;;;;;14.38;9.35;;;;;;;;;;4949491;28;20019;-57
2021/09/26 13:11:07;;;;;;;11.77;8.75;;;;;;;;;;4958173;28;20051;-58
2021/09/26 13:13:41;;;;;;;13.43;8.93;;;;;;;;;;4960171;28;20027;-57
2021/09/26 13:16:37;;;;;;;18.52;9.85;;;;;;;;;;4951444;28;20400;-58
2021/09/26 13:19:21;;;;;;;102.82;27.77;;;;;;;;;;4941559;28;20042;-58
2021/09/26 13:21:58;;;;;;;17.15;9.90;;;;;;;;;;4949838;28;20043;-59
2021/09/26 13:24:24;;;;;;;12.80;9.50;;;;;;;;;;4958051;28;20106;-58
2021/09/26 13:26:50;;;;;;;14.43;10.18;;;;;;;;;;4954223;28;20031;-58
2021/09/26 13:29:26;;;;;;;15.50;10.23;;;;;;;;;;4962167;28;20047;-58
2021/09/26 13:31:52;;;;;;;15.75;10.65;;;;;;;;;;4950060;28;20055;-58
2021/09/26 13:34:31;;;;;;;18.33;11.00;;;;;;;;;;4955040;28;20055;-58
2021/09/26 13:37:00;;;;;;;16.63;10.43;;;;;;;;;;4958192;28;20048;-58
2021/09/26 13:39:51;;;;;;;16.03;10.07;;;;;;;;;;4965711;28;20019;-58
2021/09/26 13:42:19;;;;;;;17.98;10.38;;;;;;;;;;4954697;28;20412;-58
2021/09/26 13:44:45;;;;;;;15.82;10.80;;;;;;;;;;4963671;28;20023;-58
2021/09/26 13:47:10;;;;;;;14.52;10.50;;;;;;;;;;4963995;28;20039;-58
2021/09/26 13:49:36;;;;;;;15.88;11.40;;;;;;;;;;4963203;28;20031;-58
2021/09/26 13:52:01;;;;;;;15.38;10.50;;;;;;;;;;4960792;28;20049;-58
2021/09/26 13:54:26;;;;;;;15.00;10.65;;;;;;;;;;4963882;28;20046;-58
2021/09/26 13:56:52;;;;;;;15.43;10.27;;;;;;;;;;4953456;28;20036;-58
2021/09/26 13:59:17;;;;;;;14.63;10.18;;;;;;;;;;4957390;28;20038;-59
2021/09/26 14:01:45;;;;;;;17.40;10.68;;;;;;;;;;4959680;28;20063;-59
2021/09/26 14:04:10;;;;;;;15.05;10.05;;;;;;;;;;4953661;28;20421;-59
2021/09/26 14:06:36;;;;;;;19.63;10.68;;;;;;;;;;4958136;28;20045;-59
2021/09/26 14:09:01;;;;;;;17.50;10.30;;;;;;;;;;4957571;28;20027;-58
2021/09/26 14:11:26;;;;;;;16.95;10.80;;;;;;;;;;4957650;28;20077;-57
2021/09/26 14:13:52;;;;;;;16.42;9.70;;;;;;;;;;4948246;28;20034;-57
2021/09/26 14:16:17;;;;;;;15.48;11.13;;;;;;;;;;4925099;28;20072;-57